createdAt,value
2022-12-11T00:01:20.201Z,2
2022-12-11T00:03:51.269Z,4
2022-12-11T00:06:23.262Z,4
2022-12-11T00:08:54.226Z,0
2022-12-11T00:11:24.426Z,4
2022-12-11T00:13:55.109Z,3
2022-12-11T00:16:27.187Z,3
2022-12-11T00:18:57.405Z,0
2022-12-11T00:21:28.720Z,0
2022-12-11T00:23:59.520Z,4
2022-12-11T00:26:30.396Z,0
2022-12-11T00:29:01.032Z,0
2022-12-11T00:31:30.099Z,2
2022-12-11T00:34:01.040Z,4
2022-12-11T00:36:31.942Z,0
2022-12-11T00:39:02.534Z,4
2022-12-11T00:41:33.220Z,4
2022-12-11T00:44:04.002Z,0
2022-12-11T00:46:33.726Z,0
2022-12-11T00:49:04.289Z,4
2022-12-11T00:51:36.789Z,4
2022-12-11T00:54:07.397Z,3
2022-12-11T00:56:38.723Z,0
2022-12-11T00:59:10.012Z,4
2022-12-11T01:01:40.928Z,4
2022-12-11T01:04:11.738Z,3
2022-12-11T01:06:43.356Z,4
2022-12-11T01:09:14.637Z,5
2022-12-11T01:11:45.208Z,4
2022-12-11T01:14:16.084Z,4
2022-12-11T01:16:47.009Z,4
2022-12-11T01:19:17.729Z,8
2022-12-11T01:21:49.825Z,4
2022-12-11T01:24:20.473Z,4
2022-12-11T01:26:51.546Z,4
2022-12-11T01:29:23.019Z,4
2022-12-11T01:31:53.591Z,4
2022-12-11T01:34:24.251Z,4
2022-12-11T01:36:55.648Z,4
2022-12-11T01:39:32.866Z,4
2022-12-11T01:41:58.362Z,4
2022-12-11T01:44:29.139Z,4
2022-12-11T01:46:59.962Z,4
2022-12-11T01:49:31.642Z,0
2022-12-11T01:52:02.632Z,0
2022-12-11T01:54:33.959Z,0
2022-12-11T01:57:05.123Z,0
2022-12-11T01:59:36.829Z,0
2022-12-11T02:02:07.736Z,0
2022-12-11T02:04:39.248Z,0
2022-12-11T02:07:11.688Z,4
2022-12-11T02:09:41.637Z,0
2022-12-11T02:12:12.550Z,1
2022-12-11T02:14:43.899Z,0
2022-12-11T02:17:14.532Z,0
2022-12-11T02:19:45.580Z,3
2022-12-11T02:22:16.682Z,0
2022-12-11T02:24:47.578Z,0
2022-12-11T02:27:18.478Z,0
2022-12-11T02:29:50.698Z,0
2022-12-11T02:32:21.437Z,0
2022-12-11T02:34:52.628Z,0
2022-12-11T02:37:23.660Z,0
2022-12-11T02:39:54.891Z,0
2022-12-11T02:42:25.434Z,0
2022-12-11T02:44:56.684Z,0
2022-12-11T02:47:27.809Z,0
2022-12-11T02:49:58.927Z,0
2022-12-11T02:52:29.386Z,0
2022-12-11T02:55:00.241Z,0
2022-12-11T02:57:34.951Z,4
2022-12-11T03:00:05.758Z,0
2022-12-11T03:02:36.715Z,0
2022-12-11T03:05:07.827Z,0
2022-12-11T03:07:38.761Z,0
2022-12-11T03:10:09.446Z,0
2022-12-11T03:12:40.691Z,0
2022-12-11T03:15:12.006Z,0
2022-12-11T03:17:42.580Z,0
2022-12-11T03:20:13.571Z,0
2022-12-11T03:22:45.493Z,2
2022-12-11T03:25:16.283Z,0
2022-12-11T03:27:47.567Z,0
2022-12-11T03:30:18.974Z,0
2022-12-11T03:32:49.834Z,0
2022-12-11T03:35:21.436Z,0
2022-12-11T03:37:52.208Z,0
2022-12-11T03:40:24.216Z,0
2022-12-11T03:42:54.927Z,0
2022-12-11T03:45:26.370Z,0
2022-12-11T03:47:57.622Z,0
2022-12-11T03:50:28.670Z,0
2022-12-11T03:52:59.483Z,0
2022-12-11T03:55:30.325Z,0
2022-12-11T03:58:01.069Z,0
2022-12-11T04:00:32.627Z,0
2022-12-11T04:03:06.922Z,0
2022-12-11T04:05:34.217Z,0
2022-12-11T04:08:05.147Z,0
2022-12-11T04:10:36.267Z,0
2022-12-11T04:13:07.442Z,0
2022-12-11T04:15:38.274Z,3
2022-12-11T04:18:09.267Z,1
2022-12-11T04:20:40.407Z,4
2022-12-11T04:23:12.400Z,4
2022-12-11T04:25:44.038Z,6
2022-12-11T04:28:15.647Z,4
2022-12-11T04:30:47.139Z,4
2022-12-11T04:33:18.640Z,0
2022-12-11T04:35:49.611Z,4
2022-12-11T04:38:21.161Z,4
2022-12-11T04:40:52.210Z,4
2022-12-11T04:43:23.425Z,4
2022-12-11T04:45:54.051Z,4
2022-12-11T04:48:25.787Z,1
2022-12-11T04:50:56.788Z,4
2022-12-11T04:53:27.569Z,0
2022-12-11T04:55:58.578Z,4
2022-12-11T04:58:29.971Z,4
2022-12-11T05:01:00.844Z,4
2022-12-11T05:03:32.204Z,4
2022-12-11T05:06:02.600Z,4
2022-12-11T05:08:33.639Z,4
2022-12-11T05:11:04.802Z,0
2022-12-11T05:13:36.291Z,0
2022-12-11T05:16:07.164Z,4
2022-12-11T05:18:38.000Z,0
2022-12-11T05:21:08.746Z,4
2022-12-11T05:23:40.164Z,3
2022-12-11T05:26:11.659Z,2
2022-12-11T05:28:42.700Z,4
2022-12-11T05:31:13.880Z,4
2022-12-11T05:33:44.917Z,4
2022-12-11T05:36:15.764Z,4
2022-12-11T05:38:46.642Z,0
2022-12-11T05:41:18.072Z,4
2022-12-11T05:43:49.516Z,0
2022-12-11T05:46:20.247Z,0
2022-12-11T05:48:51.263Z,4
2022-12-11T05:51:21.992Z,4
2022-12-11T05:53:53.158Z,7
2022-12-11T05:56:24.060Z,4
2022-12-11T05:58:55.610Z,4
2022-12-11T06:01:27.007Z,4
2022-12-11T06:03:58.289Z,4
2022-12-11T06:06:29.129Z,5
2022-12-11T06:08:59.994Z,5
2022-12-11T06:11:30.850Z,8
2022-12-11T06:14:01.845Z,7
2022-12-11T06:16:32.457Z,8
2022-12-11T06:19:03.034Z,8
2022-12-11T06:21:34.376Z,8
2022-12-11T06:24:06.430Z,8
2022-12-11T06:26:36.951Z,8
2022-12-11T06:29:10.901Z,8
2022-12-11T06:31:39.119Z,12
2022-12-11T06:34:09.631Z,12
2022-12-11T06:36:40.244Z,8
2022-12-11T06:39:11.334Z,12
2022-12-11T06:41:42.620Z,11
2022-12-11T06:44:13.787Z,11
2022-12-11T06:46:45.092Z,10
2022-12-11T06:49:15.621Z,12
2022-12-11T06:51:46.609Z,12
2022-12-11T06:54:16.821Z,12
2022-12-11T06:56:47.090Z,12
2022-12-11T06:59:17.519Z,12
2022-12-11T07:01:47.733Z,16
2022-12-11T07:04:19.099Z,12
2022-12-11T07:06:48.380Z,12
2022-12-11T07:09:19.474Z,12
2022-12-11T07:11:50.183Z,12
2022-12-11T07:14:20.919Z,16
2022-12-11T07:16:51.944Z,16
2022-12-11T07:19:22.448Z,16
2022-12-11T07:21:53.433Z,15
2022-12-11T07:24:23.019Z,16
2022-12-11T07:26:53.440Z,12
2022-12-11T07:29:24.572Z,20
2022-12-11T07:31:55.671Z,16
2022-12-11T07:34:26.422Z,16
2022-12-11T07:36:57.134Z,13
2022-12-11T07:39:27.722Z,20
2022-12-11T07:41:58.725Z,16
2022-12-11T07:44:29.641Z,19
2022-12-11T07:46:59.932Z,17
2022-12-11T07:49:34.106Z,21
2022-12-11T07:52:04.295Z,16
2022-12-11T07:54:35.091Z,18
2022-12-11T07:57:10.735Z,16
2022-12-11T07:59:37.201Z,19
2022-12-11T08:02:08.126Z,16
2022-12-11T08:04:39.563Z,18
2022-12-11T08:07:10.483Z,19
2022-12-11T08:09:41.098Z,16
2022-12-11T08:12:11.846Z,16
2022-12-11T08:14:42.562Z,20
2022-12-11T08:17:13.834Z,16
2022-12-11T08:19:45.139Z,16
2022-12-11T08:22:16.122Z,20
2022-12-11T08:24:47.046Z,20
2022-12-11T08:27:17.876Z,16
2022-12-11T08:29:48.982Z,16
2022-12-11T08:32:20.196Z,13
2022-12-11T08:34:50.977Z,16
2022-12-11T08:37:21.844Z,20
2022-12-11T08:39:53.126Z,16
2022-12-11T08:42:24.769Z,16
2022-12-11T08:44:55.784Z,17
2022-12-11T08:47:27.110Z,16
2022-12-11T08:49:58.708Z,20
2022-12-11T08:52:30.052Z,17
2022-12-11T08:55:01.422Z,20
2022-12-11T08:57:32.590Z,16
2022-12-11T09:00:04.227Z,20
2022-12-11T09:02:35.931Z,20
2022-12-11T09:05:07.298Z,16
2022-12-11T09:07:38.345Z,20
2022-12-11T09:10:09.640Z,16
2022-12-11T09:12:41.110Z,16
2022-12-11T09:15:12.535Z,20
2022-12-11T09:17:42.075Z,18
2022-12-11T09:20:14.328Z,21
2022-12-11T09:22:45.664Z,20
2022-12-11T09:25:17.153Z,21
2022-12-11T09:27:48.850Z,22
2022-12-11T09:30:20.249Z,23
2022-12-11T09:32:51.186Z,20
2022-12-11T09:35:22.272Z,24
2022-12-11T09:37:53.587Z,29
2022-12-11T09:40:25.070Z,24
2022-12-11T09:42:56.140Z,24
2022-12-11T09:45:27.688Z,32
2022-12-11T09:50:34.710Z,28
2022-12-11T09:53:04.411Z,32
2022-12-11T09:55:35.580Z,16
2022-12-11T09:58:07.137Z,21
2022-12-11T10:00:36.934Z,20
2022-12-11T10:03:07.684Z,20
2022-12-11T10:05:39.178Z,24
2022-12-11T10:08:10.474Z,20
2022-12-11T10:10:42.042Z,20
2022-12-11T10:13:14.838Z,20
2022-12-11T10:15:45.824Z,24
2022-12-11T10:18:16.931Z,18
2022-12-11T10:20:48.476Z,23
2022-12-11T10:23:19.553Z,18
2022-12-11T10:25:50.376Z,18
2022-12-11T10:28:21.305Z,24
2022-12-11T10:30:52.922Z,23
2022-12-11T10:33:23.972Z,24
2022-12-11T10:35:54.938Z,24
2022-12-11T10:38:26.357Z,20
2022-12-11T10:40:57.692Z,20
2022-12-11T10:43:29.261Z,23
2022-12-11T10:46:00.491Z,24
2022-12-11T10:48:31.676Z,23
2022-12-11T10:51:02.839Z,20
2022-12-11T10:53:34.061Z,17
2022-12-11T10:56:04.937Z,16
2022-12-11T10:58:35.931Z,16
2022-12-11T11:01:07.401Z,20
2022-12-11T11:03:38.904Z,20
2022-12-11T11:06:10.248Z,22
2022-12-11T11:08:42.379Z,20
2022-12-11T11:11:14.482Z,19
2022-12-11T11:13:46.799Z,16
2022-12-11T11:16:17.991Z,20
2022-12-11T11:18:49.172Z,16
2022-12-11T11:21:20.280Z,19
2022-12-11T11:23:53.523Z,20
2022-12-11T11:26:22.618Z,18
2022-12-11T11:28:54.023Z,28
2022-12-11T11:31:26.452Z,24
2022-12-11T11:33:57.504Z,24
2022-12-11T11:36:29.662Z,24
2022-12-11T11:39:01.000Z,23
2022-12-11T11:41:32.680Z,26
2022-12-11T11:44:04.789Z,24
2022-12-11T11:46:35.013Z,21
2022-12-11T11:49:05.652Z,24
2022-12-11T11:51:36.844Z,20
2022-12-11T11:54:07.790Z,24
2022-12-11T11:56:38.600Z,24
2022-12-11T11:59:09.845Z,24
2022-12-11T12:04:17.162Z,24
2022-12-11T12:06:50.967Z,25
2022-12-11T12:09:20.444Z,24
2022-12-11T12:11:51.447Z,24
2022-12-11T12:14:50.940Z,24
2022-12-11T12:16:55.665Z,24
2022-12-11T12:19:26.464Z,24
2022-12-11T12:21:57.671Z,24
2022-12-11T12:24:31.872Z,24
2022-12-11T12:27:03.289Z,26
2022-12-11T12:29:34.198Z,25
2022-12-11T12:32:03.906Z,22
2022-12-11T12:34:35.303Z,25
2022-12-11T12:37:06.744Z,28
2022-12-11T12:39:38.089Z,24
2022-12-11T12:42:09.292Z,28
2022-12-11T12:44:40.344Z,24
2022-12-11T12:47:11.234Z,24
2022-12-11T12:49:42.237Z,24
2022-12-11T12:52:13.544Z,24
2022-12-11T12:54:45.004Z,24
2022-12-11T12:57:16.078Z,26
2022-12-11T12:59:47.164Z,24
2022-12-11T13:02:17.821Z,22
2022-12-11T13:04:57.091Z,24
2022-12-11T13:07:21.000Z,24
2022-12-11T13:09:52.007Z,28
2022-12-11T13:12:25.878Z,20
2022-12-11T13:14:56.799Z,28
2022-12-11T13:17:28.874Z,24
2022-12-11T13:20:00.322Z,28
2022-12-11T13:22:31.366Z,24
2022-12-11T13:25:03.568Z,21
2022-12-11T13:27:35.094Z,28
2022-12-11T13:30:06.557Z,25
2022-12-11T13:32:37.292Z,24
2022-12-11T13:35:08.491Z,26
2022-12-11T13:37:40.034Z,24
2022-12-11T13:40:11.288Z,24
2022-12-11T13:42:42.174Z,24
2022-12-11T13:45:13.872Z,24
2022-12-11T13:47:45.360Z,21
2022-12-11T13:50:16.747Z,24
2022-12-11T13:52:47.728Z,24
2022-12-11T13:55:19.011Z,24
2022-12-11T13:57:49.940Z,27
2022-12-11T14:00:20.919Z,24
2022-12-11T14:02:51.964Z,27
2022-12-11T14:05:24.212Z,25
2022-12-11T14:07:56.917Z,25
2022-12-11T14:10:28.744Z,24
2022-12-11T14:12:59.935Z,24
2022-12-11T14:15:30.864Z,27
2022-12-11T14:18:02.448Z,25
2022-12-11T14:20:34.067Z,28
2022-12-11T14:23:05.472Z,27
2022-12-11T14:25:36.793Z,28
2022-12-11T14:28:06.866Z,25
2022-12-11T14:30:38.283Z,28
2022-12-11T14:33:10.205Z,28
2022-12-11T14:35:42.126Z,28
2022-12-11T14:38:13.781Z,28
2022-12-11T14:40:45.198Z,22
2022-12-11T14:43:16.573Z,27
2022-12-11T14:45:47.660Z,28
2022-12-11T14:48:18.699Z,28
2022-12-11T14:50:50.164Z,28
2022-12-11T14:53:21.129Z,28
2022-12-11T14:55:52.404Z,25
2022-12-11T14:58:23.842Z,28
2022-12-11T15:00:55.495Z,28
2022-12-11T15:03:26.745Z,28
2022-12-11T15:05:57.676Z,28
2022-12-11T15:08:31.722Z,27
2022-12-11T15:11:03.560Z,25
2022-12-11T15:13:34.350Z,26
2022-12-11T15:16:05.320Z,28
2022-12-11T15:18:36.841Z,24
2022-12-11T15:21:08.573Z,25
2022-12-11T15:23:40.020Z,28
2022-12-11T15:26:12.783Z,28
2022-12-11T15:28:44.097Z,24
2022-12-11T15:31:15.419Z,28
2022-12-11T15:33:46.122Z,23
2022-12-11T15:36:17.170Z,26
2022-12-11T15:38:47.997Z,25
2022-12-11T15:41:19.126Z,28
2022-12-11T15:43:52.794Z,28
2022-12-11T15:46:21.014Z,25
2022-12-11T15:48:51.683Z,24
2022-12-11T15:51:22.904Z,24
2022-12-11T15:53:52.744Z,25
2022-12-11T15:56:23.299Z,23
2022-12-11T15:58:54.379Z,24
2022-12-11T16:01:25.951Z,36
2022-12-11T16:04:01.752Z,28
2022-12-11T16:06:29.775Z,32
2022-12-11T16:09:01.105Z,28
2022-12-11T16:11:32.880Z,28
2022-12-11T16:14:03.842Z,28
2022-12-11T16:16:35.244Z,28
2022-12-11T16:19:06.460Z,26
2022-12-11T16:21:37.614Z,24
2022-12-11T16:24:09.695Z,28
2022-12-11T16:26:42.122Z,25
2022-12-11T16:29:13.863Z,28
2022-12-11T16:31:45.272Z,28
2022-12-11T16:34:17.189Z,24
2022-12-11T16:36:53.934Z,28
2022-12-11T16:39:25.959Z,28
2022-12-11T16:41:51.521Z,28
2022-12-11T16:44:23.565Z,28
2022-12-11T16:46:55.153Z,28
2022-12-11T16:49:26.334Z,27
2022-12-11T16:51:58.630Z,24
2022-12-11T16:54:29.651Z,27
2022-12-11T16:57:00.564Z,27
2022-12-11T16:59:36.783Z,28
2022-12-11T17:02:02.974Z,31
2022-12-11T17:04:34.416Z,32
2022-12-11T17:07:05.398Z,32
2022-12-11T17:09:36.594Z,31
2022-12-11T17:12:07.524Z,29
2022-12-11T17:14:38.514Z,32
2022-12-11T17:17:11.382Z,36
2022-12-11T17:19:43.404Z,31
2022-12-11T17:22:15.881Z,32
2022-12-11T17:24:47.506Z,28
2022-12-11T17:27:18.601Z,28
2022-12-11T17:29:51.810Z,28
2022-12-11T17:32:22.609Z,28
2022-12-11T17:34:54.998Z,26
2022-12-11T17:37:26.282Z,32
2022-12-11T17:39:57.235Z,28
2022-12-11T17:42:28.942Z,28
2022-12-11T17:47:36.514Z,28
2022-12-11T17:50:07.600Z,28
2022-12-11T17:52:43.943Z,28
2022-12-11T17:55:10.378Z,29
2022-12-11T17:57:41.154Z,28
2022-12-11T18:00:12.567Z,28
2022-12-11T18:02:44.207Z,28
2022-12-11T18:05:15.598Z,28
2022-12-11T18:07:46.573Z,28
2022-12-11T18:10:17.440Z,28
2022-12-11T18:12:50.101Z,29
2022-12-11T18:15:21.212Z,28
2022-12-11T18:17:52.848Z,28
2022-12-11T18:20:22.102Z,28
2022-12-11T18:22:52.920Z,28
2022-12-11T18:25:25.284Z,24
2022-12-11T18:27:59.496Z,27
2022-12-11T18:30:30.737Z,28
2022-12-11T18:33:01.816Z,28
2022-12-11T18:35:32.905Z,28
2022-12-11T18:38:05.049Z,28
2022-12-11T18:40:36.618Z,28
2022-12-11T18:43:07.960Z,28
2022-12-11T18:45:43.988Z,28
2022-12-11T18:48:17.360Z,28
2022-12-11T18:53:25.850Z,28
2022-12-11T18:56:00.476Z,28
2022-12-11T18:58:29.692Z,28
2022-12-11T19:01:02.152Z,28
2022-12-11T19:03:33.272Z,28
2022-12-11T19:06:05.666Z,26
2022-12-11T19:08:37.577Z,28
2022-12-11T19:11:08.627Z,28
2022-12-11T19:13:39.897Z,28
2022-12-11T19:16:10.638Z,28
2022-12-11T19:18:42.218Z,28
2022-12-11T19:21:13.781Z,28
2022-12-11T19:23:48.119Z,28
2022-12-11T19:26:19.443Z,29
2022-12-11T19:28:50.949Z,32
2022-12-11T19:31:22.199Z,28
2022-12-11T19:33:52.979Z,30
2022-12-11T19:36:23.575Z,28
2022-12-11T19:38:59.395Z,28
2022-12-11T19:41:25.568Z,28
2022-12-11T19:43:56.299Z,28
2022-12-11T19:46:27.756Z,29
2022-12-11T19:48:58.886Z,28
2022-12-11T19:51:30.959Z,28
2022-12-11T19:54:02.301Z,28
2022-12-11T19:59:09.136Z,32
2022-12-11T20:01:40.887Z,32
2022-12-11T20:04:12.808Z,30
2022-12-11T20:06:44.880Z,31
2022-12-11T20:09:16.266Z,28
2022-12-11T20:11:48.771Z,32
2022-12-11T20:14:23.013Z,28
2022-12-11T20:17:10.433Z,28
2022-12-11T20:19:25.573Z,29
2022-12-11T20:21:56.486Z,28
2022-12-11T20:24:29.536Z,32
2022-12-11T20:27:00.905Z,28
2022-12-11T20:29:33.215Z,28
2022-12-11T20:32:04.450Z,28
2022-12-11T20:34:35.538Z,28
2022-12-11T20:37:06.781Z,28
2022-12-11T20:39:38.897Z,28
2022-12-11T20:42:10.198Z,28
2022-12-11T20:44:45.603Z,32
2022-12-11T20:47:12.660Z,32
2022-12-11T20:49:45.971Z,30
2022-12-11T20:52:17.307Z,28
2022-12-11T20:54:48.786Z,28
2022-12-11T20:57:20.334Z,28
2022-12-11T20:59:52.194Z,32
2022-12-11T21:02:23.294Z,31
2022-12-11T21:04:54.630Z,32
2022-12-11T21:07:25.884Z,30
2022-12-11T21:09:56.773Z,32
2022-12-11T21:12:31.625Z,32
2022-12-11T21:14:59.967Z,32
2022-12-11T21:17:34.197Z,28
2022-12-11T21:20:05.747Z,31
2022-12-11T21:22:35.579Z,32
2022-12-11T21:25:07.944Z,32
2022-12-11T21:27:39.311Z,28
2022-12-11T21:30:10.532Z,32
2022-12-11T21:32:40.940Z,28
2022-12-11T21:35:12.698Z,31
2022-12-11T21:37:45.084Z,32
2022-12-11T21:40:16.352Z,32
2022-12-11T21:42:48.362Z,28
2022-12-11T21:47:51.193Z,32
2022-12-11T21:50:25.422Z,28
2022-12-11T21:52:55.704Z,28
2022-12-11T21:55:32.763Z,32
2022-12-11T21:57:58.668Z,28
2022-12-11T22:00:33.661Z,32
2022-12-11T22:03:04.881Z,32
2022-12-11T22:05:36.173Z,32
2022-12-11T22:08:07.079Z,32
2022-12-11T22:10:38.763Z,29
2022-12-11T22:13:09.882Z,28
2022-12-11T22:15:41.984Z,28
2022-12-11T22:18:13.516Z,28
2022-12-11T22:20:44.469Z,24
2022-12-11T22:23:16.013Z,28
2022-12-11T22:25:48.140Z,28
2022-12-11T22:28:20.233Z,36
2022-12-11T22:30:51.737Z,28
2022-12-11T22:33:23.127Z,34
2022-12-11T22:35:54.438Z,28
2022-12-11T22:38:25.515Z,28
2022-12-11T22:40:58.502Z,32
2022-12-11T22:43:30.659Z,31
2022-12-11T22:46:02.848Z,28
2022-12-11T22:48:33.998Z,31
2022-12-11T22:51:04.993Z,28
2022-12-11T22:53:36.485Z,29
2022-12-11T22:56:07.451Z,29
2022-12-11T22:58:39.218Z,28
2022-12-11T23:01:11.321Z,27
2022-12-11T23:03:42.417Z,28
2022-12-11T23:06:14.700Z,32
2022-12-11T23:08:45.719Z,28
2022-12-11T23:11:16.737Z,28
2022-12-11T23:13:53.927Z,34
2022-12-11T23:16:18.962Z,28
2022-12-11T23:18:50.738Z,36
2022-12-11T23:21:21.883Z,32
2022-12-11T23:23:52.583Z,29
2022-12-11T23:26:24.099Z,28
2022-12-11T23:28:54.714Z,25
2022-12-11T23:31:25.708Z,28
2022-12-11T23:33:56.268Z,28
2022-12-11T23:36:27.401Z,28
2022-12-11T23:38:58.703Z,29
2022-12-11T23:41:29.761Z,28
2022-12-11T23:44:00.683Z,31
2022-12-11T23:46:31.263Z,32
2022-12-11T23:49:03.594Z,31
2022-12-11T23:51:34.536Z,32
2022-12-11T23:54:06.053Z,28
2022-12-11T23:56:39.591Z,32
2022-12-11T23:59:10.424Z,32
